sensor_id;sensor_type;location;lat;lon;timestamp;P1;durP1;ratioP1;P2;durP2;ratioP2
76115;SDS011;64847;45.778;12.802;2023-01-28T00:01:53;9.67;;;8.50;;
76115;SDS011;64847;45.778;12.802;2023-01-28T00:04:18;9.60;;;8.60;;
76115;SDS011;64847;45.778;12.802;2023-01-28T00:06:44;13.03;;;10.20;;
76115;SDS011;64847;45.778;12.802;2023-01-28T00:09:09;11.27;;;9.07;;
76115;SDS011;64847;45.778;12.802;2023-01-28T00:11:35;10.93;;;9.67;;
76115;SDS011;64847;45.778;12.802;2023-01-28T00:14:01;10.20;;;9.10;;
76115;SDS011;64847;45.778;12.802;2023-01-28T00:16:28;9.90;;;8.83;;
76115;SDS011;64847;45.778;12.802;2023-01-28T00:18:54;9.73;;;8.73;;
76115;SDS011;64847;45.778;12.802;2023-01-28T00:21:20;10.33;;;8.00;;
76115;SDS011;64847;45.778;12.802;2023-01-28T00:23:52;9.63;;;8.63;;
76115;SDS011;64847;45.778;12.802;2023-01-28T00:26:19;11.37;;;9.63;;
76115;SDS011;64847;45.778;12.802;2023-01-28T00:28:45;9.67;;;8.33;;
76115;SDS011;64847;45.778;12.802;2023-01-28T00:31:19;9.93;;;8.47;;
76115;SDS011;64847;45.778;12.802;2023-01-28T00:33:46;11.37;;;8.97;;
76115;SDS011;64847;45.778;12.802;2023-01-28T00:36:13;8.80;;;7.90;;
76115;SDS011;64847;45.778;12.802;2023-01-28T00:38:38;9.47;;;8.03;;
76115;SDS011;64847;45.778;12.802;2023-01-28T00:41:08;9.93;;;8.37;;
76115;SDS011;64847;45.778;12.802;2023-01-28T00:43:37;9.83;;;8.20;;
76115;SDS011;64847;45.778;12.802;2023-01-28T00:46:03;8.97;;;8.03;;
76115;SDS011;64847;45.778;12.802;2023-01-28T00:48:29;9.47;;;8.13;;
76115;SDS011;64847;45.778;12.802;2023-01-28T00:50:54;9.40;;;8.07;;
76115;SDS011;64847;45.778;12.802;2023-01-28T00:53:21;12.47;;;8.70;;
76115;SDS011;64847;45.778;12.802;2023-01-28T00:55:46;10.50;;;7.97;;
76115;SDS011;64847;45.778;12.802;2023-01-28T00:58:11;9.60;;;8.13;;
76115;SDS011;64847;45.778;12.802;2023-01-28T01:00:37;9.23;;;8.23;;
76115;SDS011;64847;45.778;12.802;2023-01-28T01:03:02;10.43;;;9.00;;
76115;SDS011;64847;45.778;12.802;2023-01-28T01:05:28;10.70;;;8.63;;
76115;SDS011;64847;45.778;12.802;2023-01-28T01:07:57;9.33;;;8.13;;
76115;SDS011;64847;45.778;12.802;2023-01-28T01:10:23;10.17;;;8.97;;
76115;SDS011;64847;45.778;12.802;2023-01-28T01:12:49;10.47;;;8.97;;
76115;SDS011;64847;45.778;12.802;2023-01-28T01:15:15;10.83;;;9.17;;
76115;SDS011;64847;45.778;12.802;2023-01-28T01:17:42;11.27;;;9.17;;
76115;SDS011;64847;45.778;12.802;2023-01-28T01:20:11;10.77;;;9.47;;
76115;SDS011;64847;45.778;12.802;2023-01-28T01:22:39;11.97;;;9.30;;
76115;SDS011;64847;45.778;12.802;2023-01-28T01:25:04;12.80;;;10.27;;
76115;SDS011;64847;45.778;12.802;2023-01-28T01:27:31;11.10;;;9.97;;
76115;SDS011;64847;45.778;12.802;2023-01-28T01:29:56;12.27;;;10.00;;
76115;SDS011;64847;45.778;12.802;2023-01-28T01:32:23;12.33;;;10.33;;
76115;SDS011;64847;45.778;12.802;2023-01-28T01:34:49;12.73;;;10.17;;
76115;SDS011;64847;45.778;12.802;2023-01-28T01:37:14;11.13;;;9.10;;
76115;SDS011;64847;45.778;12.802;2023-01-28T01:39:39;13.20;;;10.53;;
76115;SDS011;64847;45.778;12.802;2023-01-28T01:42:05;11.93;;;10.37;;
76115;SDS011;64847;45.778;12.802;2023-01-28T01:47:28;14.60;;;10.40;;
76115;SDS011;64847;45.778;12.802;2023-01-28T01:49:56;12.33;;;9.77;;
76115;SDS011;64847;45.778;12.802;2023-01-28T01:52:24;10.90;;;9.53;;
76115;SDS011;64847;45.778;12.802;2023-01-28T01:54:52;10.37;;;9.13;;
76115;SDS011;64847;45.778;12.802;2023-01-28T01:57:21;13.33;;;9.53;;
76115;SDS011;64847;45.778;12.802;2023-01-28T01:59:51;10.50;;;9.00;;
76115;SDS011;64847;45.778;12.802;2023-01-28T02:02:17;11.00;;;9.30;;
76115;SDS011;64847;45.778;12.802;2023-01-28T02:04:43;10.73;;;9.30;;
76115;SDS011;64847;45.778;12.802;2023-01-28T02:07:09;10.03;;;8.53;;
76115;SDS011;64847;45.778;12.802;2023-01-28T02:09:37;10.17;;;8.60;;
76115;SDS011;64847;45.778;12.802;2023-01-28T02:14:46;9.20;;;8.23;;
76115;SDS011;64847;45.778;12.802;2023-01-28T02:17:14;9.87;;;8.43;;
76115;SDS011;64847;45.778;12.802;2023-01-28T02:19:45;11.57;;;9.27;;
76115;SDS011;64847;45.778;12.802;2023-01-28T02:25:39;9.40;;;8.20;;
76115;SDS011;64847;45.778;12.802;2023-01-28T02:34:25;11.40;;;8.70;;
76115;SDS011;64847;45.778;12.802;2023-01-28T02:37:03;9.33;;;8.30;;
76115;SDS011;64847;45.778;12.802;2023-01-28T02:39:50;9.23;;;8.30;;
76115;SDS011;64847;45.778;12.802;2023-01-28T02:44:46;11.07;;;9.13;;
76115;SDS011;64847;45.778;12.802;2023-01-28T02:47:12;10.90;;;9.33;;
76115;SDS011;64847;45.778;12.802;2023-01-28T02:50:07;10.57;;;9.10;;
76115;SDS011;64847;45.778;12.802;2023-01-28T03:06:17;11.53;;;9.47;;
76115;SDS011;64847;45.778;12.802;2023-01-28T03:11:38;11.60;;;9.63;;
76115;SDS011;64847;45.778;12.802;2023-01-28T03:14:25;11.20;;;9.47;;
76115;SDS011;64847;45.778;12.802;2023-01-28T03:17:17;10.13;;;8.67;;
76115;SDS011;64847;45.778;12.802;2023-01-28T03:20:07;10.80;;;8.83;;
76115;SDS011;64847;45.778;12.802;2023-01-28T03:22:53;10.83;;;8.93;;
76115;SDS011;64847;45.778;12.802;2023-01-28T03:25:42;9.03;;;7.50;;
76115;SDS011;64847;45.778;12.802;2023-01-28T03:28:27;10.93;;;8.73;;
76115;SDS011;64847;45.778;12.802;2023-01-28T03:31:12;13.00;;;9.90;;
76115;SDS011;64847;45.778;12.802;2023-01-28T03:33:58;10.27;;;8.73;;
76115;SDS011;64847;45.778;12.802;2023-01-28T03:36:42;9.50;;;7.73;;
76115;SDS011;64847;45.778;12.802;2023-01-28T03:39:19;9.83;;;8.83;;
76115;SDS011;64847;45.778;12.802;2023-01-28T03:42:03;9.50;;;8.50;;
76115;SDS011;64847;45.778;12.802;2023-01-28T03:44:33;9.60;;;8.47;;
76115;SDS011;64847;45.778;12.802;2023-01-28T03:47:21;11.50;;;9.13;;
76115;SDS011;64847;45.778;12.802;2023-01-28T03:49:50;11.37;;;9.13;;
76115;SDS011;64847;45.778;12.802;2023-01-28T03:52:17;10.27;;;8.90;;
76115;SDS011;64847;45.778;12.802;2023-01-28T03:54:44;11.70;;;9.13;;
76115;SDS011;64847;45.778;12.802;2023-01-28T03:57:16;10.97;;;9.17;;
76115;SDS011;64847;45.778;12.802;2023-01-28T03:59:42;10.60;;;8.23;;
76115;SDS011;64847;45.778;12.802;2023-01-28T04:02:08;11.60;;;9.60;;
76115;SDS011;64847;45.778;12.802;2023-01-28T04:04:36;10.07;;;8.43;;
76115;SDS011;64847;45.778;12.802;2023-01-28T04:07:05;9.73;;;8.73;;
76115;SDS011;64847;45.778;12.802;2023-01-28T04:09:33;9.93;;;8.57;;
76115;SDS011;64847;45.778;12.802;2023-01-28T04:11:59;10.37;;;8.97;;
76115;SDS011;64847;45.778;12.802;2023-01-28T04:14:25;9.57;;;8.57;;
76115;SDS011;64847;45.778;12.802;2023-01-28T04:16:50;10.17;;;8.20;;
76115;SDS011;64847;45.778;12.802;2023-01-28T04:19:18;11.80;;;8.83;;
76115;SDS011;64847;45.778;12.802;2023-01-28T04:21:44;9.10;;;8.07;;
76115;SDS011;64847;45.778;12.802;2023-01-28T04:24:09;10.37;;;8.00;;
76115;SDS011;64847;45.778;12.802;2023-01-28T04:26:35;10.80;;;8.33;;
76115;SDS011;64847;45.778;12.802;2023-01-28T04:29:00;9.37;;;8.10;;
76115;SDS011;64847;45.778;12.802;2023-01-28T04:31:26;10.60;;;8.67;;
76115;SDS011;64847;45.778;12.802;2023-01-28T04:33:51;10.30;;;8.83;;
76115;SDS011;64847;45.778;12.802;2023-01-28T04:36:17;9.87;;;8.03;;
76115;SDS011;64847;45.778;12.802;2023-01-28T04:38:42;9.50;;;8.40;;
76115;SDS011;64847;45.778;12.802;2023-01-28T04:41:08;9.07;;;7.90;;
76115;SDS011;64847;45.778;12.802;2023-01-28T04:43:34;11.03;;;8.30;;
76115;SDS011;64847;45.778;12.802;2023-01-28T04:45:59;9.43;;;8.47;;
76115;SDS011;64847;45.778;12.802;2023-01-28T04:48:24;10.37;;;8.27;;
76115;SDS011;64847;45.778;12.802;2023-01-28T04:50:50;11.90;;;9.33;;
76115;SDS011;64847;45.778;12.802;2023-01-28T04:53:15;11.57;;;8.83;;
76115;SDS011;64847;45.778;12.802;2023-01-28T04:55:41;11.53;;;8.27;;
76115;SDS011;64847;45.778;12.802;2023-01-28T04:58:06;11.87;;;9.10;;
76115;SDS011;64847;45.778;12.802;2023-01-28T05:00:32;9.83;;;8.20;;
76115;SDS011;64847;45.778;12.802;2023-01-28T05:02:57;10.10;;;8.87;;
76115;SDS011;64847;45.778;12.802;2023-01-28T05:05:22;10.50;;;9.33;;
76115;SDS011;64847;45.778;12.802;2023-01-28T05:07:55;9.93;;;8.50;;
76115;SDS011;64847;45.778;12.802;2023-01-28T05:10:21;11.20;;;8.93;;
76115;SDS011;64847;45.778;12.802;2023-01-28T05:12:49;13.43;;;9.43;;
76115;SDS011;64847;45.778;12.802;2023-01-28T05:15:15;10.03;;;8.87;;
76115;SDS011;64847;45.778;12.802;2023-01-28T05:17:41;9.43;;;8.03;;
76115;SDS011;64847;45.778;12.802;2023-01-28T05:20:07;10.57;;;8.27;;
76115;SDS011;64847;45.778;12.802;2023-01-28T05:22:34;8.30;;;7.40;;
76115;SDS011;64847;45.778;12.802;2023-01-28T05:24:59;9.97;;;8.13;;
76115;SDS011;64847;45.778;12.802;2023-01-28T05:27:25;9.17;;;8.27;;
76115;SDS011;64847;45.778;12.802;2023-01-28T05:29:51;9.33;;;7.63;;
76115;SDS011;64847;45.778;12.802;2023-01-28T05:32:16;9.73;;;8.30;;
76115;SDS011;64847;45.778;12.802;2023-01-28T05:34:41;9.37;;;8.47;;
76115;SDS011;64847;45.778;12.802;2023-01-28T05:37:07;8.87;;;7.97;;
76115;SDS011;64847;45.778;12.802;2023-01-28T05:39:32;9.37;;;7.97;;
76115;SDS011;64847;45.778;12.802;2023-01-28T05:41:58;10.43;;;8.20;;
76115;SDS011;64847;45.778;12.802;2023-01-28T05:44:23;9.17;;;7.63;;
76115;SDS011;64847;45.778;12.802;2023-01-28T05:46:48;9.47;;;7.37;;
76115;SDS011;64847;45.778;12.802;2023-01-28T05:49:14;8.70;;;7.57;;
76115;SDS011;64847;45.778;12.802;2023-01-28T05:51:40;8.10;;;7.30;;
76115;SDS011;64847;45.778;12.802;2023-01-28T05:54:06;8.03;;;7.23;;
76115;SDS011;64847;45.778;12.802;2023-01-28T05:56:33;8.57;;;7.67;;
76115;SDS011;64847;45.778;12.802;2023-01-28T05:59:00;7.90;;;7.10;;
76115;SDS011;64847;45.778;12.802;2023-01-28T06:01:26;8.60;;;7.40;;
76115;SDS011;64847;45.778;12.802;2023-01-28T06:03:52;9.87;;;7.10;;
76115;SDS011;64847;45.778;12.802;2023-01-28T06:06:17;8.60;;;7.60;;
76115;SDS011;64847;45.778;12.802;2023-01-28T06:08:43;7.97;;;7.17;;
76115;SDS011;64847;45.778;12.802;2023-01-28T06:11:08;9.83;;;7.70;;
76115;SDS011;64847;45.778;12.802;2023-01-28T06:13:33;8.50;;;7.30;;
76115;SDS011;64847;45.778;12.802;2023-01-28T06:15:59;10.60;;;8.07;;
76115;SDS011;64847;45.778;12.802;2023-01-28T06:18:25;8.67;;;7.47;;
76115;SDS011;64847;45.778;12.802;2023-01-28T06:20:50;8.30;;;7.27;;
76115;SDS011;64847;45.778;12.802;2023-01-28T06:23:16;8.57;;;7.10;;
76115;SDS011;64847;45.778;12.802;2023-01-28T06:25:41;7.07;;;6.37;;
76115;SDS011;64847;45.778;12.802;2023-01-28T06:28:07;8.90;;;7.93;;
76115;SDS011;64847;45.778;12.802;2023-01-28T06:30:32;8.73;;;6.70;;
76115;SDS011;64847;45.778;12.802;2023-01-28T06:32:57;7.53;;;6.57;;
76115;SDS011;64847;45.778;12.802;2023-01-28T06:35:23;8.90;;;8.00;;
76115;SDS011;64847;45.778;12.802;2023-01-28T06:37:48;7.20;;;6.50;;
76115;SDS011;64847;45.778;12.802;2023-01-28T06:40:14;8.17;;;7.30;;
76115;SDS011;64847;45.778;12.802;2023-01-28T06:42:39;11.03;;;8.23;;
76115;SDS011;64847;45.778;12.802;2023-01-28T06:45:05;7.73;;;6.97;;
76115;SDS011;64847;45.778;12.802;2023-01-28T06:47:31;8.60;;;7.27;;
76115;SDS011;64847;45.778;12.802;2023-01-28T06:49:56;9.20;;;7.30;;
76115;SDS011;64847;45.778;12.802;2023-01-28T06:52:21;9.07;;;7.23;;
76115;SDS011;64847;45.778;12.802;2023-01-28T06:54:47;9.03;;;7.60;;
76115;SDS011;64847;45.778;12.802;2023-01-28T06:57:12;10.10;;;7.50;;
76115;SDS011;64847;45.778;12.802;2023-01-28T06:59:37;9.47;;;6.73;;
76115;SDS011;64847;45.778;12.802;2023-01-28T07:02:03;9.23;;;7.60;;
76115;SDS011;64847;45.778;12.802;2023-01-28T07:04:28;7.83;;;7.00;;
76115;SDS011;64847;45.778;12.802;2023-01-28T07:06:54;8.80;;;7.43;;
76115;SDS011;64847;45.778;12.802;2023-01-28T07:09:19;8.40;;;6.83;;
76115;SDS011;64847;45.778;12.802;2023-01-28T07:11:44;8.70;;;7.30;;
76115;SDS011;64847;45.778;12.802;2023-01-28T07:14:10;7.90;;;7.07;;
76115;SDS011;64847;45.778;12.802;2023-01-28T07:16:35;7.73;;;6.73;;
76115;SDS011;64847;45.778;12.802;2023-01-28T07:19:01;8.07;;;6.90;;
76115;SDS011;64847;45.778;12.802;2023-01-28T07:21:26;7.40;;;6.57;;
76115;SDS011;64847;45.778;12.802;2023-01-28T07:23:52;8.70;;;7.80;;
76115;SDS011;64847;45.778;12.802;2023-01-28T07:26:17;7.97;;;7.07;;
76115;SDS011;64847;45.778;12.802;2023-01-28T07:28:45;8.80;;;7.20;;
76115;SDS011;64847;45.778;12.802;2023-01-28T07:31:10;6.67;;;6.00;;
76115;SDS011;64847;45.778;12.802;2023-01-28T07:33:35;6.57;;;5.87;;
76115;SDS011;64847;45.778;12.802;2023-01-28T07:36:01;6.80;;;6.17;;
76115;SDS011;64847;45.778;12.802;2023-01-28T07:38:26;6.50;;;5.90;;
76115;SDS011;64847;45.778;12.802;2023-01-28T07:40:52;7.33;;;6.63;;
76115;SDS011;64847;45.778;12.802;2023-01-28T07:43:17;7.80;;;7.03;;
76115;SDS011;64847;45.778;12.802;2023-01-28T07:45:42;7.90;;;7.10;;
76115;SDS011;64847;45.778;12.802;2023-01-28T07:48:09;7.70;;;7.00;;
76115;SDS011;64847;45.778;12.802;2023-01-28T07:50:36;7.93;;;7.13;;
76115;SDS011;64847;45.778;12.802;2023-01-28T07:53:03;7.50;;;6.80;;
76115;SDS011;64847;45.778;12.802;2023-01-28T07:55:29;7.97;;;7.27;;
76115;SDS011;64847;45.778;12.802;2023-01-28T07:57:56;8.27;;;7.57;;
76115;SDS011;64847;45.778;12.802;2023-01-28T08:00:22;7.90;;;7.20;;
76115;SDS011;64847;45.778;12.802;2023-01-28T08:02:49;7.93;;;7.23;;
76115;SDS011;64847;45.778;12.802;2023-01-28T08:05:18;7.53;;;6.83;;
76115;SDS011;64847;45.778;12.802;2023-01-28T08:07:44;7.90;;;7.20;;
76115;SDS011;64847;45.778;12.802;2023-01-28T08:10:11;7.80;;;7.10;;
76115;SDS011;64847;45.778;12.802;2023-01-28T08:12:38;7.87;;;7.17;;
76115;SDS011;64847;45.778;12.802;2023-01-28T08:15:04;8.20;;;7.47;;
76115;SDS011;64847;45.778;12.802;2023-01-28T08:17:30;7.90;;;7.20;;
76115;SDS011;64847;45.778;12.802;2023-01-28T08:19:55;7.43;;;6.80;;
76115;SDS011;64847;45.778;12.802;2023-01-28T08:22:24;7.80;;;7.10;;
76115;SDS011;64847;45.778;12.802;2023-01-28T08:24:50;8.00;;;7.30;;
76115;SDS011;64847;45.778;12.802;2023-01-28T08:27:16;7.55;;;6.95;;
76115;SDS011;64847;45.778;12.802;2023-01-28T08:29:41;8.07;;;7.38;;
76115;SDS011;64847;45.778;12.802;2023-01-28T08:32:07;8.07;;;7.38;;
76115;SDS011;64847;45.778;12.802;2023-01-28T08:34:33;7.68;;;7.07;;
76115;SDS011;64847;45.778;12.802;2023-01-28T08:36:58;7.78;;;7.07;;
76115;SDS011;64847;45.778;12.802;2023-01-28T08:39:24;7.47;;;6.88;;
76115;SDS011;64847;45.778;12.802;2023-01-28T08:41:49;7.38;;;6.75;;
76115;SDS011;64847;45.778;12.802;2023-01-28T08:44:15;8.73;;;8.02;;
76115;SDS011;64847;45.778;12.802;2023-01-28T08:46:40;9.07;;;8.27;;
76115;SDS011;64847;45.778;12.802;2023-01-28T08:49:05;8.10;;;7.40;;
76115;SDS011;64847;45.778;12.802;2023-01-28T08:51:31;7.43;;;6.82;;
76115;SDS011;64847;45.778;12.802;2023-01-28T08:53:56;7.75;;;7.07;;
76115;SDS011;64847;45.778;12.802;2023-01-28T08:56:22;7.82;;;7.22;;
76115;SDS011;64847;45.778;12.802;2023-01-28T08:58:48;8.07;;;7.38;;
76115;SDS011;64847;45.778;12.802;2023-01-28T09:01:13;8.77;;;7.90;;
76115;SDS011;64847;45.778;12.802;2023-01-28T09:03:39;8.35;;;7.65;;
76115;SDS011;64847;45.778;12.802;2023-01-28T09:06:04;7.40;;;6.70;;
76115;SDS011;64847;45.778;12.802;2023-01-28T09:08:30;7.85;;;6.85;;
76115;SDS011;64847;45.778;12.802;2023-01-28T09:10:56;8.25;;;7.55;;
76115;SDS011;64847;45.778;12.802;2023-01-28T09:13:22;7.32;;;6.72;;
76115;SDS011;64847;45.778;12.802;2023-01-28T09:15:48;8.48;;;7.82;;
76115;SDS011;64847;45.778;12.802;2023-01-28T09:18:15;8.00;;;7.30;;
76115;SDS011;64847;45.778;12.802;2023-01-28T09:20:41;7.57;;;6.97;;
76115;SDS011;64847;45.778;12.802;2023-01-28T09:23:06;8.73;;;7.97;;
76115;SDS011;64847;45.778;12.802;2023-01-28T09:25:32;7.28;;;6.68;;
76115;SDS011;64847;45.778;12.802;2023-01-28T09:28:00;7.45;;;6.78;;
76115;SDS011;64847;45.778;12.802;2023-01-28T09:30:25;8.05;;;7.35;;
76115;SDS011;64847;45.778;12.802;2023-01-28T09:32:51;7.72;;;7.13;;
76115;SDS011;64847;45.778;12.802;2023-01-28T09:35:17;7.55;;;6.85;;
76115;SDS011;64847;45.778;12.802;2023-01-28T09:37:43;6.57;;;6.07;;
76115;SDS011;64847;45.778;12.802;2023-01-28T09:40:16;6.68;;;6.18;;
76115;SDS011;64847;45.778;12.802;2023-01-28T09:42:56;6.85;;;6.32;;
76115;SDS011;64847;45.778;12.802;2023-01-28T09:46:10;7.03;;;6.43;;
76115;SDS011;64847;45.778;12.802;2023-01-28T09:48:19;7.28;;;6.57;;
76115;SDS011;64847;45.778;12.802;2023-01-28T09:50:50;6.53;;;6.03;;
76115;SDS011;64847;45.778;12.802;2023-01-28T09:56:00;6.95;;;6.45;;
76115;SDS011;64847;45.778;12.802;2023-01-28T09:58:28;7.40;;;6.80;;
76115;SDS011;64847;45.778;12.802;2023-01-28T10:17:44;6.32;;;5.82;;
76115;SDS011;64847;45.778;12.802;2023-01-28T10:22:47;6.35;;;5.95;;
76115;SDS011;64847;45.778;12.802;2023-01-28T10:25:20;6.53;;;5.93;;
76115;SDS011;64847;45.778;12.802;2023-01-28T10:27:49;6.07;;;5.57;;
76115;SDS011;64847;45.778;12.802;2023-01-28T10:30:17;6.13;;;5.63;;
76115;SDS011;64847;45.778;12.802;2023-01-28T10:32:50;7.05;;;6.22;;
76115;SDS011;64847;45.778;12.802;2023-01-28T10:35:16;6.43;;;5.93;;
76115;SDS011;64847;45.778;12.802;2023-01-28T10:37:42;5.90;;;5.25;;
76115;SDS011;64847;45.778;12.802;2023-01-28T10:40:14;6.50;;;5.90;;
76115;SDS011;64847;45.778;12.802;2023-01-28T10:42:40;6.43;;;5.93;;
76115;SDS011;64847;45.778;12.802;2023-01-28T10:45:07;7.00;;;6.40;;
76115;SDS011;64847;45.778;12.802;2023-01-28T10:50:32;6.57;;;5.97;;
76115;SDS011;64847;45.778;12.802;2023-01-28T10:53:03;6.80;;;6.30;;
76115;SDS011;64847;45.778;12.802;2023-01-28T10:55:49;6.07;;;5.57;;
76115;SDS011;64847;45.778;12.802;2023-01-28T10:58:17;6.90;;;6.30;;
76115;SDS011;64847;45.778;12.802;2023-01-28T11:00:45;6.73;;;6.13;;
76115;SDS011;64847;45.778;12.802;2023-01-28T11:03:17;7.33;;;6.63;;
76115;SDS011;64847;45.778;12.802;2023-01-28T11:05:49;6.87;;;6.07;;
76115;SDS011;64847;45.778;12.802;2023-01-28T11:08:16;6.07;;;5.57;;
76115;SDS011;64847;45.778;12.802;2023-01-28T11:10:43;5.87;;;5.37;;
76115;SDS011;64847;45.778;12.802;2023-01-28T11:13:28;5.93;;;5.43;;
76115;SDS011;64847;45.778;12.802;2023-01-28T11:15:59;6.60;;;6.07;;
76115;SDS011;64847;45.778;12.802;2023-01-28T11:18:27;7.03;;;6.43;;
76115;SDS011;64847;45.778;12.802;2023-01-28T11:20:59;6.90;;;6.30;;
76115;SDS011;64847;45.778;12.802;2023-01-28T11:23:32;6.57;;;5.97;;
76115;SDS011;64847;45.778;12.802;2023-01-28T11:29:01;6.03;;;5.45;;
76115;SDS011;64847;45.778;12.802;2023-01-28T11:31:27;7.15;;;6.55;;
76115;SDS011;64847;45.778;12.802;2023-01-28T11:36:19;7.40;;;6.70;;
76115;SDS011;64847;45.778;12.802;2023-01-28T11:38:50;6.47;;;5.87;;
76115;SDS011;64847;45.778;12.802;2023-01-28T11:41:27;6.70;;;6.10;;
76115;SDS011;64847;45.778;12.802;2023-01-28T11:43:54;6.83;;;6.20;;
76115;SDS011;64847;45.778;12.802;2023-01-28T11:49:25;6.70;;;6.10;;
76115;SDS011;64847;45.778;12.802;2023-01-28T11:55:03;7.30;;;6.43;;
76115;SDS011;64847;45.778;12.802;2023-01-28T11:57:45;6.77;;;6.17;;
76115;SDS011;64847;45.778;12.802;2023-01-28T12:02:58;7.60;;;6.90;;
76115;SDS011;64847;45.778;12.802;2023-01-28T12:08:26;7.27;;;6.57;;
76115;SDS011;64847;45.778;12.802;2023-01-28T12:19:08;7.43;;;6.63;;
76115;SDS011;64847;45.778;12.802;2023-01-28T12:21:39;7.03;;;6.33;;
76115;SDS011;64847;45.778;12.802;2023-01-28T12:30:35;7.00;;;6.30;;
76115;SDS011;64847;45.778;12.802;2023-01-28T12:41:42;6.03;;;5.53;;
76115;SDS011;64847;45.778;12.802;2023-01-28T12:47:01;6.47;;;5.87;;
76115;SDS011;64847;45.778;12.802;2023-01-28T12:49:44;5.80;;;5.30;;
76115;SDS011;64847;45.778;12.802;2023-01-28T12:52:23;6.00;;;5.43;;
76115;SDS011;64847;45.778;12.802;2023-01-28T12:57:46;5.80;;;5.30;;
76115;SDS011;64847;45.778;12.802;2023-01-28T13:03:20;6.30;;;5.73;;
76115;SDS011;64847;45.778;12.802;2023-01-28T13:05:46;5.80;;;5.27;;
76115;SDS011;64847;45.778;12.802;2023-01-28T13:08:16;5.70;;;5.13;;
76115;SDS011;64847;45.778;12.802;2023-01-28T13:10:46;6.10;;;5.60;;
76115;SDS011;64847;45.778;12.802;2023-01-28T13:15:55;6.07;;;5.47;;
76115;SDS011;64847;45.778;12.802;2023-01-28T13:21:00;5.87;;;5.37;;
76115;SDS011;64847;45.778;12.802;2023-01-28T13:25:55;6.00;;;5.50;;
76115;SDS011;64847;45.778;12.802;2023-01-28T13:28:28;6.50;;;5.90;;
76115;SDS011;64847;45.778;12.802;2023-01-28T13:31:03;6.13;;;5.63;;
76115;SDS011;64847;45.778;12.802;2023-01-28T13:33:38;5.80;;;5.30;;
76115;SDS011;64847;45.778;12.802;2023-01-28T13:38:36;6.40;;;5.83;;
76115;SDS011;64847;45.778;12.802;2023-01-28T13:41:02;6.40;;;5.80;;
76115;SDS011;64847;45.778;12.802;2023-01-28T13:43:34;6.20;;;5.57;;
76115;SDS011;64847;45.778;12.802;2023-01-28T13:48:32;7.03;;;6.33;;
76115;SDS011;64847;45.778;12.802;2023-01-28T13:51:03;6.80;;;6.20;;
76115;SDS011;64847;45.778;12.802;2023-01-28T13:53:44;6.17;;;5.57;;
76115;SDS011;64847;45.778;12.802;2023-01-28T13:56:16;6.47;;;5.87;;
76115;SDS011;64847;45.778;12.802;2023-01-28T13:58:52;6.37;;;5.80;;
76115;SDS011;64847;45.778;12.802;2023-01-28T14:17:56;5.60;;;5.10;;
76115;SDS011;64847;45.778;12.802;2023-01-28T14:20:28;6.03;;;5.00;;
76115;SDS011;64847;45.778;12.802;2023-01-28T14:23:03;5.07;;;4.67;;
76115;SDS011;64847;45.778;12.802;2023-01-28T14:25:41;5.23;;;4.73;;
76115;SDS011;64847;45.778;12.802;2023-01-28T14:28:26;5.43;;;4.93;;
76115;SDS011;64847;45.778;12.802;2023-01-28T14:31:06;5.10;;;4.70;;
76115;SDS011;64847;45.778;12.802;2023-01-28T14:33:53;4.83;;;4.43;;
76115;SDS011;64847;45.778;12.802;2023-01-28T14:36:19;4.97;;;4.57;;
76115;SDS011;64847;45.778;12.802;2023-01-28T14:38:45;5.10;;;4.70;;
76115;SDS011;64847;45.778;12.802;2023-01-28T14:41:20;5.60;;;5.10;;
76115;SDS011;64847;45.778;12.802;2023-01-28T14:43:48;5.50;;;5.00;;
76115;SDS011;64847;45.778;12.802;2023-01-28T14:59:21;5.40;;;4.90;;
76115;SDS011;64847;45.778;12.802;2023-01-28T15:01:53;6.20;;;5.00;;
76115;SDS011;64847;45.778;12.802;2023-01-28T15:06:55;5.97;;;5.37;;
76115;SDS011;64847;45.778;12.802;2023-01-28T15:09:21;5.30;;;4.80;;
76115;SDS011;64847;45.778;12.802;2023-01-28T15:11:47;5.90;;;5.40;;
76115;SDS011;64847;45.778;12.802;2023-01-28T15:14:19;5.87;;;5.30;;
76115;SDS011;64847;45.778;12.802;2023-01-28T15:16:50;6.23;;;5.57;;
76115;SDS011;64847;45.778;12.802;2023-01-28T15:19:15;6.20;;;5.60;;
76115;SDS011;64847;45.778;12.802;2023-01-28T15:21:42;5.60;;;5.10;;
76115;SDS011;64847;45.778;12.802;2023-01-28T15:24:11;6.33;;;5.73;;
76115;SDS011;64847;45.778;12.802;2023-01-28T15:26:37;6.30;;;5.70;;
76115;SDS011;64847;45.778;12.802;2023-01-28T15:29:03;6.27;;;5.50;;
76115;SDS011;64847;45.778;12.802;2023-01-28T15:31:29;6.50;;;5.90;;
76115;SDS011;64847;45.778;12.802;2023-01-28T15:34:00;7.07;;;6.33;;
76115;SDS011;64847;45.778;12.802;2023-01-28T15:36:25;6.77;;;6.10;;
76115;SDS011;64847;45.778;12.802;2023-01-28T15:38:51;8.03;;;5.53;;
76115;SDS011;64847;45.778;12.802;2023-01-28T15:41:17;6.60;;;5.53;;
76115;SDS011;64847;45.778;12.802;2023-01-28T15:43:45;5.70;;;5.20;;
76115;SDS011;64847;45.778;12.802;2023-01-28T15:46:12;6.20;;;5.70;;
76115;SDS011;64847;45.778;12.802;2023-01-28T15:48:39;5.93;;;5.43;;
76115;SDS011;64847;45.778;12.802;2023-01-28T15:51:16;5.67;;;5.17;;
76115;SDS011;64847;45.778;12.802;2023-01-28T15:53:48;5.67;;;5.17;;
76115;SDS011;64847;45.778;12.802;2023-01-28T15:56:15;5.50;;;5.00;;
76115;SDS011;64847;45.778;12.802;2023-01-28T15:58:49;5.87;;;5.30;;
76115;SDS011;64847;45.778;12.802;2023-01-28T16:01:15;5.60;;;5.10;;
76115;SDS011;64847;45.778;12.802;2023-01-28T16:03:41;5.87;;;5.37;;
76115;SDS011;64847;45.778;12.802;2023-01-28T16:11:03;6.50;;;5.90;;
76115;SDS011;64847;45.778;12.802;2023-01-28T16:13:32;6.50;;;5.90;;
76115;SDS011;64847;45.778;12.802;2023-01-28T16:15:58;7.27;;;6.57;;
76115;SDS011;64847;45.778;12.802;2023-01-28T16:21:18;7.07;;;6.33;;
76115;SDS011;64847;45.778;12.802;2023-01-28T16:23:53;7.37;;;6.60;;
76115;SDS011;64847;45.778;12.802;2023-01-28T16:26:25;7.33;;;6.63;;
76115;SDS011;64847;45.778;12.802;2023-01-28T16:28:51;6.47;;;5.80;;
76115;SDS011;64847;45.778;12.802;2023-01-28T16:31:16;7.50;;;6.57;;
76115;SDS011;64847;45.778;12.802;2023-01-28T16:33:42;7.10;;;6.20;;
76115;SDS011;64847;45.778;12.802;2023-01-28T16:36:09;8.53;;;7.07;;
76115;SDS011;64847;45.778;12.802;2023-01-28T16:38:35;8.87;;;7.37;;
76115;SDS011;64847;45.778;12.802;2023-01-28T16:41:01;7.70;;;6.90;;
76115;SDS011;64847;45.778;12.802;2023-01-28T16:43:26;7.40;;;6.70;;
76115;SDS011;64847;45.778;12.802;2023-01-28T16:45:51;7.60;;;6.83;;
76115;SDS011;64847;45.778;12.802;2023-01-28T16:48:17;9.33;;;7.20;;
76115;SDS011;64847;45.778;12.802;2023-01-28T16:50:42;8.10;;;6.60;;
76115;SDS011;64847;45.778;12.802;2023-01-28T16:53:11;7.80;;;7.00;;
76115;SDS011;64847;45.778;12.802;2023-01-28T16:55:44;7.63;;;6.83;;
76115;SDS011;64847;45.778;12.802;2023-01-28T16:58:11;8.23;;;6.90;;
76115;SDS011;64847;45.778;12.802;2023-01-28T17:00:37;7.20;;;6.40;;
76115;SDS011;64847;45.778;12.802;2023-01-28T17:03:02;8.93;;;6.53;;
76115;SDS011;64847;45.778;12.802;2023-01-28T17:05:29;7.27;;;6.50;;
76115;SDS011;64847;45.778;12.802;2023-01-28T17:07:55;6.73;;;6.13;;
76115;SDS011;64847;45.778;12.802;2023-01-28T17:10:23;8.37;;;7.13;;
76115;SDS011;64847;45.778;12.802;2023-01-28T17:12:49;7.40;;;6.60;;
76115;SDS011;64847;45.778;12.802;2023-01-28T17:15:14;7.77;;;7.03;;
76115;SDS011;64847;45.778;12.802;2023-01-28T17:17:39;9.00;;;7.37;;
76115;SDS011;64847;45.778;12.802;2023-01-28T17:20:05;9.20;;;7.97;;